Gretchen H — WDC9138 — position and weather

sailwx.info

Track history (hours):
 
Tides and Currents Weather Stations Pressure Air Temp Water Temp Dewpoint Dewpoint Depression Visibility Wind Speed Wind Dir Waves Ship Positions

Gretchen H

Owner: BOYER TOWING INC, KETCHIKAN, AK. More information available from US FCC via Universal Licensing System and Coast Guard Vessel Documentation Center.

Last reported at 2017-Nov-25 18:54 UTC. Time now 2017-Dec-14 00:14 UTC.
Position N 54°23' W 130°36'.
Warning: this ship's position is 18 days out of date.

Type: Tow > 200 m length. MMSI: 367098050.

Date/timePositionNaut miles runAvg speedWind from/ knotsBaromVisibWave heightAir tempDewpointWater temp
2017-Nov-25 18:54N 54°23' W 130°36'410.0
2017-Nov-25 18:30N 54°19' W 130°34'5 9.7
2017-Nov-25 18:00N 54°15' W 130°30'5 9.6
2017-Nov-25 17:30N 54°11' W 130°26'5 9.6
2017-Nov-25 17:00N 54°07' W 130°22'5 9.6
2017-Nov-25 16:30N 54°03' W 130°16'5 9.6
2017-Nov-25 16:00N 53°59' W 130°13'5 9.4
2017-Nov-25 15:30N 53°55' W 130°10'5 9.2
2017-Nov-25 15:00N 53°52' W 130°03'161 7.9
2017-Nov-24 18:42N 51°32' W 127°52'2 8.6
2017-Nov-24 18:29N 51°30' W 127°52'20 9.4
2017-Nov-24 16:24N 51°11' W 127°51'4 9.3
2017-Nov-24 16:00N 51°08' W 127°48'5 9.6
2017-Nov-24 15:30N 51°04' W 127°42'5 9.6
2017-Nov-24 15:00N 51°01' W 127°37'5 9.4
2017-Nov-24 14:30N 50°58' W 127°31'5 9.0
2017-Nov-24 14:00N 50°55' W 127°25'4 8.7
2017-Nov-24 13:30N 50°52' W 127°20'5 9.2
2017-Nov-24 12:59N 50°49' W 127°14'4 8.9
2017-Nov-24 12:30N 50°47' W 127°09'6 9.1
2017-Nov-24 11:49N 50°44' W 127°00'3 8.5
2017-Nov-24 11:25N 50°42' W 126°55'5 7.9
2017-Nov-24 10:45N 50°39' W 126°49'2 8.6
2017-Nov-24 10:27N 50°37' W 126°46'4 8.3
2017-Nov-24 09:56N 50°34' W 126°41'4 7.8
2017-Nov-24 09:29N 50°31' W 126°38'4310.2
2017-Nov-24 05:14N 50°21' W 125°32'310.4
2017-Nov-24 04:57N 50°21' W 125°27'4 8.6
2017-Nov-24 04:30N 50°17' W 125°24'5 9.2
2017-Nov-24 04:00N 50°13' W 125°23'4 8.5
2017-Nov-24 03:31N 50°09' W 125°21'3 6.7
2017-Nov-24 03:01N 50°06' W 125°18'3 6.8
2017-Nov-24 02:30N 50°03' W 125°15'3 6.4
2017-Nov-24 02:01N 50°01' W 125°13'4 7.2
2017-Nov-24 01:30N 49°58' W 125°09'4 8.6
2017-Nov-24 00:59N 49°55' W 125°04'4 8.4
2017-Nov-24 00:31N 49°52' W 124°59'4 8.4
2017-Nov-24 00:00N 49°49' W 124°55'4 8.7
2017-Nov-23 23:31N 49°46' W 124°50'4 8.8
2017-Nov-23 23:00N 49°43' W 124°45'5 8.9
2017-Nov-23 22:30N 49°41' W 124°39'4 8.7
2017-Nov-23 22:00N 49°39' W 124°33'4 8.4
2017-Nov-23 21:30N 49°37' W 124°27'34 8.7
2017-Nov-23 17:36N 49°18' W 123°43'1 8.9
2017-Nov-23 17:26N 49°18' W 123°42'4 8.8
2017-Nov-23 16:59N 49°15' W 123°37'4 9.0
2017-Nov-23 16:30N 49°11' W 123°33'5 9.0
2017-Nov-23 15:57N 49°08' W 123°27'4 8.7
2017-Nov-23 15:30N 49°05' W 123°23'4 8.4
2017-Nov-23 15:00N 49°03' W 123°18'5 8.7
2017-Nov-23 14:29N 48°60' W 123°13'4 8.8
2017-Nov-23 14:00N 48°57' W 123°08'5 9.7
2017-Nov-23 13:29N 48°54' W 123°02'4 8.7
2017-Nov-23 13:00N 48°51' W 122°57'7 8.1
2017-Nov-23 12:12N 48°47' W 122°50'2 8.9
2017-Nov-23 11:59N 48°46' W 122°47'4 9.2
2017-Nov-23 11:30N 48°42' W 122°43'4 7.7
2017-Nov-23 11:00N 48°38' W 122°44'4 8.8
2017-Nov-23 10:30N 48°34' W 122°45'4 7.9
2017-Nov-23 10:00N 48°30' W 122°45'4 8.0
2017-Nov-23 09:30N 48°26' W 122°44'4 7.4
2017-Nov-23 08:58N 48°22' W 122°45'4 7.7
2017-Nov-23 08:23N 48°18' W 122°46'16 9.3
2017-Nov-23 06:38N 48°03' W 122°38'411.4
2017-Nov-23 06:15N 47°59' W 122°35'310.8
2017-Nov-23 06:00N 47°57' W 122°32'5 9.6
2017-Nov-23 05:30N 47°53' W 122°28'5 9.5
2017-Nov-23 05:00N 47°48' W 122°26'5 9.3
2017-Nov-23 04:30N 47°44' W 122°26'5 9.3
2017-Nov-23 04:00N 47°39' W 122°27'4 8.4
2017-Nov-23 03:30N 47°36' W 122°22'1 1.6
2017-Nov-23 03:01N 47°35' W 122°22'3 5.1
2017-Nov-23 02:30N 47°33' W 122°20'1 1.7
2017-Nov-23 02:00N 47°32' W 122°20'0 0.0
2017-Nov-23 01:30N 47°32' W 122°20'0 0.0
2017-Nov-23 01:00N 47°32' W 122°20'0 0.0
2017-Nov-23 00:30N 47°32' W 122°20'0 0.0
2017-Nov-23 00:00N 47°32' W 122°20'0 0.0
2017-Nov-22 23:30N 47°32' W 122°20'0 0.1
2017-Nov-22 23:00N 47°32' W 122°20'0 0.0
2017-Nov-22 22:30N 47°32' W 122°20'0 0.0
2017-Nov-22 22:00N 47°32' W 122°20'0 0.0
2017-Nov-22 21:30N 47°32' W 122°20'0 0.0
2017-Nov-22 21:00N 47°32' W 122°20'0 0.0
2017-Nov-22 20:30N 47°32' W 122°20'0 0.0
2017-Nov-22 20:00N 47°32' W 122°20'0 0.0
2017-Nov-22 19:30N 47°32' W 122°20'  
2017-Nov-16 20:56N 47°32' W 122°20'0 0.0
2017-Nov-16 20:30N 47°32' W 122°20'1 2.6
2017-Nov-16 20:00N 47°33' W 122°21'2 3.9
2017-Nov-16 19:31N 47°35' W 122°21'0 0.1
2017-Nov-16 19:00N 47°35' W 122°21'0 0.0
2017-Nov-16 18:30N 47°35' W 122°21'0 0.0
2017-Nov-16 18:00N 47°35' W 122°21'0 0.0
2017-Nov-16 17:31N 47°35' W 122°21'0 0.0
2017-Nov-16 17:00N 47°35' W 122°21'0 0.0
2017-Nov-16 16:30N 47°35' W 122°21'0 0.0
2017-Nov-16 16:01N 47°35' W 122°21'0 0.0
2017-Nov-16 15:30N 47°35' W 122°21'0 0.0
2017-Nov-16 15:00N 47°35' W 122°21'0 0.1
2017-Nov-16 14:30N 47°35' W 122°21'1 2.7
2017-Nov-16 14:00N 47°34' W 122°21'2 3.8
2017-Nov-16 13:30N 47°32' W 122°20'  
Track history (hours):
 
Tides and Currents Weather Stations Pressure Air Temp Water Temp Dewpoint Dewpoint Depression Visibility Wind Speed Wind Dir Waves Ship Positions

Gretchen H

Owner: BOYER TOWING INC, KETCHIKAN, AK. More information available from US FCC via Universal Licensing System and Coast Guard Vessel Documentation Center.

Last reported at 2017-Nov-25 18:54 UTC. Time now 2017-Dec-14 00:14 UTC.
Position N 54°23' W 130°36'.
Warning: this ship's position is 18 days out of date.

Type: Tow > 200 m length. MMSI: 367098050.

Date/timePositionNaut miles runAvg speedWind from/ knotsBaromVisibWave heightAir tempDewpointWater temp
2017-Nov-25 18:54N 54°23' W 130°36'410.0
2017-Nov-25 18:30N 54°19' W 130°34'5 9.7
2017-Nov-25 18:00N 54°15' W 130°30'5 9.6
2017-Nov-25 17:30N 54°11' W 130°26'5 9.6
2017-Nov-25 17:00N 54°07' W 130°22'5 9.6
2017-Nov-25 16:30N 54°03' W 130°16'5 9.6
2017-Nov-25 16:00N 53°59' W 130°13'5 9.4
2017-Nov-25 15:30N 53°55' W 130°10'5 9.2
2017-Nov-25 15:00N 53°52' W 130°03'161 7.9
2017-Nov-24 18:42N 51°32' W 127°52'2 8.6
2017-Nov-24 18:29N 51°30' W 127°52'20 9.4
2017-Nov-24 16:24N 51°11' W 127°51'4 9.3
2017-Nov-24 16:00N 51°08' W 127°48'5 9.6
2017-Nov-24 15:30N 51°04' W 127°42'5 9.6
2017-Nov-24 15:00N 51°01' W 127°37'5 9.4
2017-Nov-24 14:30N 50°58' W 127°31'5 9.0
2017-Nov-24 14:00N 50°55' W 127°25'4 8.7
2017-Nov-24 13:30N 50°52' W 127°20'5 9.2
2017-Nov-24 12:59N 50°49' W 127°14'4 8.9
2017-Nov-24 12:30N 50°47' W 127°09'6 9.1
2017-Nov-24 11:49N 50°44' W 127°00'3 8.5
2017-Nov-24 11:25N 50°42' W 126°55'5 7.9
2017-Nov-24 10:45N 50°39' W 126°49'2 8.6
2017-Nov-24 10:27N 50°37' W 126°46'4 8.3
2017-Nov-24 09:56N 50°34' W 126°41'4 7.8
2017-Nov-24 09:29N 50°31' W 126°38'4310.2
2017-Nov-24 05:14N 50°21' W 125°32'310.4
2017-Nov-24 04:57N 50°21' W 125°27'4 8.6
2017-Nov-24 04:30N 50°17' W 125°24'5 9.2
2017-Nov-24 04:00N 50°13' W 125°23'4 8.5
2017-Nov-24 03:31N 50°09' W 125°21'3 6.7
2017-Nov-24 03:01N 50°06' W 125°18'3 6.8
2017-Nov-24 02:30N 50°03' W 125°15'3 6.4
2017-Nov-24 02:01N 50°01' W 125°13'4 7.2
2017-Nov-24 01:30N 49°58' W 125°09'4 8.6
2017-Nov-24 00:59N 49°55' W 125°04'4 8.4
2017-Nov-24 00:31N 49°52' W 124°59'4 8.4
2017-Nov-24 00:00N 49°49' W 124°55'4 8.7
2017-Nov-23 23:31N 49°46' W 124°50'4 8.8
2017-Nov-23 23:00N 49°43' W 124°45'5 8.9
2017-Nov-23 22:30N 49°41' W 124°39'4 8.7
2017-Nov-23 22:00N 49°39' W 124°33'4 8.4
2017-Nov-23 21:30N 49°37' W 124°27'34 8.7
2017-Nov-23 17:36N 49°18' W 123°43'1 8.9
2017-Nov-23 17:26N 49°18' W 123°42'4 8.8
2017-Nov-23 16:59N 49°15' W 123°37'4 9.0
2017-Nov-23 16:30N 49°11' W 123°33'5 9.0
2017-Nov-23 15:57N 49°08' W 123°27'4 8.7
2017-Nov-23 15:30N 49°05' W 123°23'4 8.4
2017-Nov-23 15:00N 49°03' W 123°18'5 8.7
2017-Nov-23 14:29N 48°60' W 123°13'4 8.8
2017-Nov-23 14:00N 48°57' W 123°08'5 9.7
2017-Nov-23 13:29N 48°54' W 123°02'4 8.7
2017-Nov-23 13:00N 48°51' W 122°57'7 8.1
2017-Nov-23 12:12N 48°47' W 122°50'2 8.9
2017-Nov-23 11:59N 48°46' W 122°47'4 9.2
2017-Nov-23 11:30N 48°42' W 122°43'4 7.7
2017-Nov-23 11:00N 48°38' W 122°44'4 8.8
2017-Nov-23 10:30N 48°34' W 122°45'4 7.9
2017-Nov-23 10:00N 48°30' W 122°45'4 8.0
2017-Nov-23 09:30N 48°26' W 122°44'4 7.4
2017-Nov-23 08:58N 48°22' W 122°45'4 7.7
2017-Nov-23 08:23N 48°18' W 122°46'16 9.3
2017-Nov-23 06:38N 48°03' W 122°38'411.4
2017-Nov-23 06:15N 47°59' W 122°35'310.8
2017-Nov-23 06:00N 47°57' W 122°32'5 9.6
2017-Nov-23 05:30N 47°53' W 122°28'5 9.5
2017-Nov-23 05:00N 47°48' W 122°26'5 9.3
2017-Nov-23 04:30N 47°44' W 122°26'5 9.3
2017-Nov-23 04:00N 47°39' W 122°27'4 8.4
2017-Nov-23 03:30N 47°36' W 122°22'1 1.6
2017-Nov-23 03:01N 47°35' W 122°22'3 5.1
2017-Nov-23 02:30N 47°33' W 122°20'1 1.7
2017-Nov-23 02:00N 47°32' W 122°20'0 0.0
2017-Nov-23 01:30N 47°32' W 122°20'0 0.0
2017-Nov-23 01:00N 47°32' W 122°20'0 0.0
2017-Nov-23 00:30N 47°32' W 122°20'0 0.0
2017-Nov-23 00:00N 47°32' W 122°20'0 0.0
2017-Nov-22 23:30N 47°32' W 122°20'0 0.1
2017-Nov-22 23:00N 47°32' W 122°20'0 0.0
2017-Nov-22 22:30N 47°32' W 122°20'0 0.0
2017-Nov-22 22:00N 47°32' W 122°20'0 0.0
2017-Nov-22 21:30N 47°32' W 122°20'0 0.0
2017-Nov-22 21:00N 47°32' W 122°20'0 0.0
2017-Nov-22 20:30N 47°32' W 122°20'0 0.0
2017-Nov-22 20:00N 47°32' W 122°20'0 0.0
2017-Nov-22 19:30N 47°32' W 122°20'  
2017-Nov-16 20:56N 47°32' W 122°20'0 0.0
2017-Nov-16 20:30N 47°32' W 122°20'1 2.6
2017-Nov-16 20:00N 47°33' W 122°21'2 3.9
2017-Nov-16 19:31N 47°35' W 122°21'0 0.1
2017-Nov-16 19:00N 47°35' W 122°21'0 0.0
2017-Nov-16 18:30N 47°35' W 122°21'0 0.0
2017-Nov-16 18:00N 47°35' W 122°21'0 0.0
2017-Nov-16 17:31N 47°35' W 122°21'0 0.0
2017-Nov-16 17:00N 47°35' W 122°21'0 0.0
2017-Nov-16 16:30N 47°35' W 122°21'0 0.0
2017-Nov-16 16:01N 47°35' W 122°21'0 0.0
2017-Nov-16 15:30N 47°35' W 122°21'0 0.0
2017-Nov-16 15:00N 47°35' W 122°21'0 0.1
2017-Nov-16 14:30N 47°35' W 122°21'1 2.7
2017-Nov-16 14:00N 47°34' W 122°21'2 3.8
2017-Nov-16 13:30N 47°32' W 122°20'  

Dump ship's entire track history